sensor_id;sensor_type;location;lat;lon;timestamp;P1;durP1;ratioP1;P2;durP2;ratioP2
31004;SDS011;17676;52.254;4.490;2023-07-02T00:02:06;13.05;;;4.32;;
31004;SDS011;17676;52.254;4.490;2023-07-02T00:04:31;11.60;;;4.53;;
31004;SDS011;17676;52.254;4.490;2023-07-02T00:06:56;13.30;;;4.20;;
31004;SDS011;17676;52.254;4.490;2023-07-02T00:09:22;13.52;;;4.47;;
31004;SDS011;17676;52.254;4.490;2023-07-02T00:11:47;14.55;;;4.13;;
31004;SDS011;17676;52.254;4.490;2023-07-02T00:14:13;17.25;;;4.53;;
31004;SDS011;17676;52.254;4.490;2023-07-02T00:16:43;14.82;;;4.90;;
31004;SDS011;17676;52.254;4.490;2023-07-02T00:19:10;17.13;;;5.50;;
31004;SDS011;17676;52.254;4.490;2023-07-02T00:21:37;16.17;;;4.47;;
31004;SDS011;17676;52.254;4.490;2023-07-02T00:24:03;20.02;;;4.72;;
31004;SDS011;17676;52.254;4.490;2023-07-02T00:26:29;18.50;;;4.28;;
31004;SDS011;17676;52.254;4.490;2023-07-02T00:28:55;19.15;;;4.85;;
31004;SDS011;17676;52.254;4.490;2023-07-02T00:31:21;17.27;;;5.68;;
31004;SDS011;17676;52.254;4.490;2023-07-02T00:33:48;16.80;;;4.68;;
31004;SDS011;17676;52.254;4.490;2023-07-02T00:36:13;12.75;;;4.50;;
31004;SDS011;17676;52.254;4.490;2023-07-02T00:38:43;16.60;;;4.53;;
31004;SDS011;17676;52.254;4.490;2023-07-02T00:41:11;11.65;;;3.92;;
31004;SDS011;17676;52.254;4.490;2023-07-02T00:43:36;14.23;;;5.03;;
31004;SDS011;17676;52.254;4.490;2023-07-02T00:46:08;11.45;;;4.35;;
31004;SDS011;17676;52.254;4.490;2023-07-02T00:48:36;14.52;;;5.25;;
31004;SDS011;17676;52.254;4.490;2023-07-02T00:51:03;15.45;;;4.65;;
31004;SDS011;17676;52.254;4.490;2023-07-02T00:53:29;11.63;;;4.60;;
31004;SDS011;17676;52.254;4.490;2023-07-02T00:55:54;15.10;;;5.20;;
31004;SDS011;17676;52.254;4.490;2023-07-02T00:58:20;16.38;;;5.03;;
31004;SDS011;17676;52.254;4.490;2023-07-02T01:00:46;13.95;;;4.40;;
31004;SDS011;17676;52.254;4.490;2023-07-02T01:03:11;16.70;;;5.25;;
31004;SDS011;17676;52.254;4.490;2023-07-02T01:05:37;17.00;;;4.70;;
31004;SDS011;17676;52.254;4.490;2023-07-02T01:08:03;12.43;;;4.15;;
31004;SDS011;17676;52.254;4.490;2023-07-02T01:10:29;16.83;;;4.85;;
31004;SDS011;17676;52.254;4.490;2023-07-02T01:12:56;15.00;;;4.65;;
31004;SDS011;17676;52.254;4.490;2023-07-02T01:15:24;13.85;;;4.75;;
31004;SDS011;17676;52.254;4.490;2023-07-02T01:17:50;14.95;;;5.00;;
31004;SDS011;17676;52.254;4.490;2023-07-02T01:20:17;15.85;;;5.32;;
31004;SDS011;17676;52.254;4.490;2023-07-02T01:22:45;14.85;;;4.35;;
31004;SDS011;17676;52.254;4.490;2023-07-02T01:25:14;20.77;;;5.20;;
31004;SDS011;17676;52.254;4.490;2023-07-02T01:27:40;16.85;;;4.90;;
31004;SDS011;17676;52.254;4.490;2023-07-02T01:30:06;14.85;;;4.93;;
31004;SDS011;17676;52.254;4.490;2023-07-02T01:32:32;19.10;;;4.57;;
31004;SDS011;17676;52.254;4.490;2023-07-02T01:34:57;18.75;;;5.55;;
31004;SDS011;17676;52.254;4.490;2023-07-02T01:37:24;16.60;;;5.25;;
31004;SDS011;17676;52.254;4.490;2023-07-02T01:39:49;15.85;;;4.85;;
31004;SDS011;17676;52.254;4.490;2023-07-02T01:42:15;17.95;;;5.43;;
31004;SDS011;17676;52.254;4.490;2023-07-02T01:44:46;17.73;;;4.95;;
31004;SDS011;17676;52.254;4.490;2023-07-02T01:47:13;16.45;;;5.43;;
31004;SDS011;17676;52.254;4.490;2023-07-02T01:49:39;15.48;;;4.93;;
31004;SDS011;17676;52.254;4.490;2023-07-02T01:52:05;18.50;;;5.43;;
31004;SDS011;17676;52.254;4.490;2023-07-02T01:54:32;15.80;;;5.55;;
31004;SDS011;17676;52.254;4.490;2023-07-02T01:56:58;16.80;;;5.10;;
31004;SDS011;17676;52.254;4.490;2023-07-02T01:59:24;20.10;;;5.55;;
31004;SDS011;17676;52.254;4.490;2023-07-02T02:01:50;17.58;;;4.80;;
31004;SDS011;17676;52.254;4.490;2023-07-02T02:04:16;16.35;;;5.93;;
31004;SDS011;17676;52.254;4.490;2023-07-02T02:06:41;20.55;;;5.72;;
31004;SDS011;17676;52.254;4.490;2023-07-02T02:09:07;15.57;;;4.72;;
31004;SDS011;17676;52.254;4.490;2023-07-02T02:11:34;17.30;;;5.20;;
31004;SDS011;17676;52.254;4.490;2023-07-02T02:14:02;18.63;;;5.35;;
31004;SDS011;17676;52.254;4.490;2023-07-02T02:16:27;18.35;;;5.75;;
31004;SDS011;17676;52.254;4.490;2023-07-02T02:18:53;14.82;;;4.57;;
31004;SDS011;17676;52.254;4.490;2023-07-02T02:21:19;17.73;;;5.05;;
31004;SDS011;17676;52.254;4.490;2023-07-02T02:23:46;14.93;;;4.85;;
31004;SDS011;17676;52.254;4.490;2023-07-02T02:26:12;17.10;;;5.32;;
31004;SDS011;17676;52.254;4.490;2023-07-02T02:28:38;16.90;;;5.22;;
31004;SDS011;17676;52.254;4.490;2023-07-02T02:31:03;21.15;;;5.25;;
31004;SDS011;17676;52.254;4.490;2023-07-02T02:33:28;19.85;;;5.22;;
31004;SDS011;17676;52.254;4.490;2023-07-02T02:35:54;17.67;;;4.60;;
31004;SDS011;17676;52.254;4.490;2023-07-02T02:38:20;19.50;;;5.13;;
31004;SDS011;17676;52.254;4.490;2023-07-02T02:40:45;15.07;;;4.78;;
31004;SDS011;17676;52.254;4.490;2023-07-02T02:43:10;16.38;;;5.22;;
31004;SDS011;17676;52.254;4.490;2023-07-02T02:45:36;17.80;;;4.43;;
31004;SDS011;17676;52.254;4.490;2023-07-02T02:48:01;16.70;;;5.05;;
31004;SDS011;17676;52.254;4.490;2023-07-02T02:50:27;24.15;;;5.88;;
31004;SDS011;17676;52.254;4.490;2023-07-02T02:52:52;15.25;;;4.60;;
31004;SDS011;17676;52.254;4.490;2023-07-02T02:55:18;24.63;;;6.03;;
31004;SDS011;17676;52.254;4.490;2023-07-02T02:57:43;17.67;;;5.13;;
31004;SDS011;17676;52.254;4.490;2023-07-02T03:00:09;20.70;;;5.22;;
31004;SDS011;17676;52.254;4.490;2023-07-02T03:02:36;13.70;;;4.65;;
31004;SDS011;17676;52.254;4.490;2023-07-02T03:05:01;14.90;;;5.20;;
31004;SDS011;17676;52.254;4.490;2023-07-02T03:07:27;18.58;;;4.63;;
31004;SDS011;17676;52.254;4.490;2023-07-02T03:09:53;17.30;;;4.97;;
31004;SDS011;17676;52.254;4.490;2023-07-02T03:12:19;14.32;;;4.30;;
31004;SDS011;17676;52.254;4.490;2023-07-02T03:14:44;20.63;;;5.40;;
31004;SDS011;17676;52.254;4.490;2023-07-02T03:17:10;17.73;;;5.05;;
31004;SDS011;17676;52.254;4.490;2023-07-02T03:19:35;17.30;;;6.13;;
31004;SDS011;17676;52.254;4.490;2023-07-02T03:22:00;17.38;;;5.10;;
31004;SDS011;17676;52.254;4.490;2023-07-02T03:24:26;17.17;;;5.22;;
31004;SDS011;17676;52.254;4.490;2023-07-02T03:27:53;20.90;;;5.10;;
31004;SDS011;17676;52.254;4.490;2023-07-02T03:30:21;13.20;;;4.70;;
31004;SDS011;17676;52.254;4.490;2023-07-02T03:32:47;16.33;;;4.68;;
31004;SDS011;17676;52.254;4.490;2023-07-02T03:35:12;17.45;;;5.45;;
31004;SDS011;17676;52.254;4.490;2023-07-02T03:37:38;18.08;;;5.00;;
31004;SDS011;17676;52.254;4.490;2023-07-02T03:40:06;14.25;;;4.45;;
31004;SDS011;17676;52.254;4.490;2023-07-02T03:42:32;19.60;;;5.00;;
31004;SDS011;17676;52.254;4.490;2023-07-02T03:44:58;17.17;;;4.47;;
31004;SDS011;17676;52.254;4.490;2023-07-02T03:47:24;17.23;;;4.28;;
31004;SDS011;17676;52.254;4.490;2023-07-02T03:49:49;14.77;;;5.13;;
31004;SDS011;17676;52.254;4.490;2023-07-02T03:52:15;15.70;;;4.05;;
31004;SDS011;17676;52.254;4.490;2023-07-02T03:54:41;13.43;;;4.40;;
31004;SDS011;17676;52.254;4.490;2023-07-02T03:57:06;18.05;;;4.32;;
31004;SDS011;17676;52.254;4.490;2023-07-02T03:59:31;10.90;;;3.72;;
31004;SDS011;17676;52.254;4.490;2023-07-02T04:01:57;14.07;;;4.03;;
31004;SDS011;17676;52.254;4.490;2023-07-02T04:04:22;10.82;;;3.85;;
31004;SDS011;17676;52.254;4.490;2023-07-02T04:06:48;13.82;;;4.57;;
31004;SDS011;17676;52.254;4.490;2023-07-02T04:09:13;15.68;;;3.70;;
31004;SDS011;17676;52.254;4.490;2023-07-02T04:11:39;18.08;;;4.35;;
31004;SDS011;17676;52.254;4.490;2023-07-02T04:14:04;15.90;;;3.75;;
31004;SDS011;17676;52.254;4.490;2023-07-02T04:16:30;13.77;;;3.40;;
31004;SDS011;17676;52.254;4.490;2023-07-02T04:18:55;17.55;;;4.28;;
31004;SDS011;17676;52.254;4.490;2023-07-02T04:21:20;12.50;;;3.65;;
31004;SDS011;17676;52.254;4.490;2023-07-02T04:23:46;14.98;;;3.70;;
31004;SDS011;17676;52.254;4.490;2023-07-02T04:26:11;11.75;;;3.20;;
31004;SDS011;17676;52.254;4.490;2023-07-02T04:28:37;16.17;;;4.53;;
31004;SDS011;17676;52.254;4.490;2023-07-02T04:31:02;18.90;;;3.92;;
31004;SDS011;17676;52.254;4.490;2023-07-02T04:33:27;14.35;;;4.00;;
31004;SDS011;17676;52.254;4.490;2023-07-02T04:36:03;12.70;;;3.55;;
31004;SDS011;17676;52.254;4.490;2023-07-02T04:38:29;13.18;;;3.85;;
31004;SDS011;17676;52.254;4.490;2023-07-02T04:40:54;13.68;;;4.13;;
31004;SDS011;17676;52.254;4.490;2023-07-02T04:43:22;16.60;;;4.15;;
31004;SDS011;17676;52.254;4.490;2023-07-02T04:45:48;15.25;;;4.15;;
31004;SDS011;17676;52.254;4.490;2023-07-02T04:48:14;16.80;;;4.55;;
31004;SDS011;17676;52.254;4.490;2023-07-02T04:50:39;13.00;;;3.30;;
31004;SDS011;17676;52.254;4.490;2023-07-02T04:53:04;19.95;;;4.47;;
31004;SDS011;17676;52.254;4.490;2023-07-02T04:55:33;12.88;;;3.70;;
31004;SDS011;17676;52.254;4.490;2023-07-02T04:57:58;16.45;;;3.97;;
31004;SDS011;17676;52.254;4.490;2023-07-02T05:00:24;18.75;;;3.85;;
31004;SDS011;17676;52.254;4.490;2023-07-02T05:02:49;13.88;;;4.30;;
31004;SDS011;17676;52.254;4.490;2023-07-02T05:05:15;16.58;;;4.20;;
31004;SDS011;17676;52.254;4.490;2023-07-02T05:07:41;18.05;;;3.75;;
31004;SDS011;17676;52.254;4.490;2023-07-02T05:10:07;12.80;;;3.70;;
31004;SDS011;17676;52.254;4.490;2023-07-02T05:12:32;13.77;;;4.10;;
31004;SDS011;17676;52.254;4.490;2023-07-02T05:14:58;11.27;;;4.15;;
31004;SDS011;17676;52.254;4.490;2023-07-02T05:17:23;14.57;;;3.70;;
31004;SDS011;17676;52.254;4.490;2023-07-02T05:19:52;15.60;;;4.05;;
31004;SDS011;17676;52.254;4.490;2023-07-02T05:22:17;16.35;;;3.72;;
31004;SDS011;17676;52.254;4.490;2023-07-02T05:24:44;15.55;;;3.83;;
31004;SDS011;17676;52.254;4.490;2023-07-02T05:27:09;17.30;;;4.30;;
31004;SDS011;17676;52.254;4.490;2023-07-02T05:29:35;15.90;;;3.53;;
31004;SDS011;17676;52.254;4.490;2023-07-02T05:32:00;16.13;;;3.95;;
31004;SDS011;17676;52.254;4.490;2023-07-02T05:34:29;13.35;;;3.95;;
31004;SDS011;17676;52.254;4.490;2023-07-02T05:36:54;11.05;;;4.05;;
31004;SDS011;17676;52.254;4.490;2023-07-02T05:39:19;12.25;;;3.75;;
31004;SDS011;17676;52.254;4.490;2023-07-02T05:41:46;15.35;;;3.85;;
31004;SDS011;17676;52.254;4.490;2023-07-02T05:44:12;18.45;;;3.20;;
31004;SDS011;17676;52.254;4.490;2023-07-02T05:46:37;12.02;;;2.88;;
31004;SDS011;17676;52.254;4.490;2023-07-02T05:49:03;11.35;;;3.50;;
31004;SDS011;17676;52.254;4.490;2023-07-02T05:51:28;15.98;;;3.58;;
31004;SDS011;17676;52.254;4.490;2023-07-02T05:53:53;15.80;;;3.53;;
31004;SDS011;17676;52.254;4.490;2023-07-02T05:56:19;14.98;;;2.83;;
31004;SDS011;17676;52.254;4.490;2023-07-02T05:58:45;17.23;;;3.40;;
31004;SDS011;17676;52.254;4.490;2023-07-02T06:01:10;14.07;;;3.10;;
31004;SDS011;17676;52.254;4.490;2023-07-02T06:03:36;13.98;;;3.55;;
31004;SDS011;17676;52.254;4.490;2023-07-02T06:06:02;10.50;;;3.17;;
31004;SDS011;17676;52.254;4.490;2023-07-02T06:08:28;15.80;;;3.60;;
31004;SDS011;17676;52.254;4.490;2023-07-02T06:10:53;8.50;;;2.70;;
31004;SDS011;17676;52.254;4.490;2023-07-02T06:13:19;10.70;;;3.05;;
31004;SDS011;17676;52.254;4.490;2023-07-02T06:15:44;9.85;;;3.00;;
31004;SDS011;17676;52.254;4.490;2023-07-02T06:18:11;13.85;;;3.63;;
31004;SDS011;17676;52.254;4.490;2023-07-02T06:20:37;10.77;;;3.13;;
31004;SDS011;17676;52.254;4.490;2023-07-02T06:23:03;12.00;;;3.28;;
31004;SDS011;17676;52.254;4.490;2023-07-02T06:25:28;12.23;;;3.47;;
31004;SDS011;17676;52.254;4.490;2023-07-02T06:27:53;16.33;;;4.15;;
31004;SDS011;17676;52.254;4.490;2023-07-02T06:30:23;10.10;;;3.33;;
31004;SDS011;17676;52.254;4.490;2023-07-02T06:32:48;8.77;;;2.45;;
31004;SDS011;17676;52.254;4.490;2023-07-02T06:35:13;11.98;;;3.33;;
31004;SDS011;17676;52.254;4.490;2023-07-02T06:37:39;10.80;;;3.05;;
31004;SDS011;17676;52.254;4.490;2023-07-02T06:40:05;14.70;;;3.13;;
31004;SDS011;17676;52.254;4.490;2023-07-02T06:42:31;9.93;;;3.47;;
31004;SDS011;17676;52.254;4.490;2023-07-02T06:44:57;9.75;;;3.65;;
31004;SDS011;17676;52.254;4.490;2023-07-02T06:47:23;10.23;;;3.00;;
31004;SDS011;17676;52.254;4.490;2023-07-02T06:49:48;11.27;;;3.85;;
31004;SDS011;17676;52.254;4.490;2023-07-02T06:52:14;9.00;;;3.13;;
31004;SDS011;17676;52.254;4.490;2023-07-02T06:54:39;12.45;;;3.08;;
31004;SDS011;17676;52.254;4.490;2023-07-02T06:57:05;15.10;;;3.63;;
31004;SDS011;17676;52.254;4.490;2023-07-02T06:59:30;13.77;;;3.60;;
31004;SDS011;17676;52.254;4.490;2023-07-02T07:01:56;14.48;;;3.80;;
31004;SDS011;17676;52.254;4.490;2023-07-02T07:04:21;15.15;;;3.42;;
31004;SDS011;17676;52.254;4.490;2023-07-02T07:06:46;11.80;;;3.88;;
31004;SDS011;17676;52.254;4.490;2023-07-02T07:09:12;11.65;;;3.80;;
31004;SDS011;17676;52.254;4.490;2023-07-02T07:11:37;9.23;;;3.45;;
31004;SDS011;17676;52.254;4.490;2023-07-02T07:14:03;13.70;;;4.10;;
31004;SDS011;17676;52.254;4.490;2023-07-02T07:16:28;9.13;;;3.40;;
31004;SDS011;17676;52.254;4.490;2023-07-02T07:18:54;7.65;;;2.75;;
31004;SDS011;17676;52.254;4.490;2023-07-02T07:21:19;13.23;;;3.83;;
31004;SDS011;17676;52.254;4.490;2023-07-02T07:23:45;8.07;;;3.20;;
31004;SDS011;17676;52.254;4.490;2023-07-02T07:26:10;12.05;;;3.42;;
31004;SDS011;17676;52.254;4.490;2023-07-02T07:28:36;10.30;;;3.25;;
31004;SDS011;17676;52.254;4.490;2023-07-02T07:31:02;8.48;;;3.20;;
31004;SDS011;17676;52.254;4.490;2023-07-02T07:33:28;12.93;;;2.65;;
31004;SDS011;17676;52.254;4.490;2023-07-02T07:35:54;10.05;;;2.88;;
31004;SDS011;17676;52.254;4.490;2023-07-02T07:38:19;8.57;;;2.42;;
31004;SDS011;17676;52.254;4.490;2023-07-02T07:40:45;9.98;;;3.65;;
31004;SDS011;17676;52.254;4.490;2023-07-02T07:43:11;9.43;;;2.92;;
31004;SDS011;17676;52.254;4.490;2023-07-02T07:45:36;9.32;;;3.47;;
31004;SDS011;17676;52.254;4.490;2023-07-02T07:48:02;9.90;;;3.22;;
31004;SDS011;17676;52.254;4.490;2023-07-02T07:50:29;12.30;;;3.20;;
31004;SDS011;17676;52.254;4.490;2023-07-02T07:52:54;9.88;;;3.25;;
31004;SDS011;17676;52.254;4.490;2023-07-02T07:55:20;9.32;;;3.17;;
31004;SDS011;17676;52.254;4.490;2023-07-02T07:57:45;7.82;;;2.92;;
31004;SDS011;17676;52.254;4.490;2023-07-02T08:00:11;9.07;;;3.10;;
31004;SDS011;17676;52.254;4.490;2023-07-02T08:02:37;7.90;;;2.70;;
31004;SDS011;17676;52.254;4.490;2023-07-02T08:05:02;10.57;;;2.55;;
31004;SDS011;17676;52.254;4.490;2023-07-02T08:07:28;6.50;;;2.97;;
31004;SDS011;17676;52.254;4.490;2023-07-02T08:09:54;6.97;;;2.63;;
31004;SDS011;17676;52.254;4.490;2023-07-02T08:12:19;8.30;;;2.58;;
31004;SDS011;17676;52.254;4.490;2023-07-02T08:14:45;6.88;;;2.95;;
31004;SDS011;17676;52.254;4.490;2023-07-02T08:17:10;10.82;;;3.63;;
31004;SDS011;17676;52.254;4.490;2023-07-02T08:19:36;15.40;;;3.72;;
31004;SDS011;17676;52.254;4.490;2023-07-02T08:22:01;9.05;;;2.90;;
31004;SDS011;17676;52.254;4.490;2023-07-02T08:24:27;10.00;;;3.53;;
31004;SDS011;17676;52.254;4.490;2023-07-02T08:26:53;11.85;;;2.88;;
31004;SDS011;17676;52.254;4.490;2023-07-02T08:29:18;11.63;;;3.20;;
31004;SDS011;17676;52.254;4.490;2023-07-02T08:31:44;8.30;;;2.55;;
31004;SDS011;17676;52.254;4.490;2023-07-02T08:34:09;8.85;;;2.47;;
31004;SDS011;17676;52.254;4.490;2023-07-02T08:36:35;8.82;;;2.45;;
31004;SDS011;17676;52.254;4.490;2023-07-02T08:39:00;9.20;;;2.42;;
31004;SDS011;17676;52.254;4.490;2023-07-02T08:41:26;6.85;;;2.60;;
31004;SDS011;17676;52.254;4.490;2023-07-02T08:46:20;7.38;;;2.33;;
31004;SDS011;17676;52.254;4.490;2023-07-02T08:48:46;8.15;;;2.72;;
31004;SDS011;17676;52.254;4.490;2023-07-02T08:51:12;8.05;;;2.22;;
31004;SDS011;17676;52.254;4.490;2023-07-02T08:53:37;4.70;;;2.13;;
31004;SDS011;17676;52.254;4.490;2023-07-02T08:56:05;8.02;;;2.60;;
31004;SDS011;17676;52.254;4.490;2023-07-02T08:58:31;9.45;;;2.75;;
31004;SDS011;17676;52.254;4.490;2023-07-02T09:01:09;10.23;;;2.22;;
31004;SDS011;17676;52.254;4.490;2023-07-02T09:03:36;12.23;;;2.20;;
31004;SDS011;17676;52.254;4.490;2023-07-02T09:06:06;11.60;;;2.35;;
31004;SDS011;17676;52.254;4.490;2023-07-02T09:08:33;6.63;;;2.30;;
31004;SDS011;17676;52.254;4.490;2023-07-02T09:13:48;7.65;;;2.38;;
31004;SDS011;17676;52.254;4.490;2023-07-02T09:16:21;9.93;;;2.63;;
31004;SDS011;17676;52.254;4.490;2023-07-02T09:26:44;6.38;;;2.03;;
31004;SDS011;17676;52.254;4.490;2023-07-02T09:29:11;6.78;;;2.05;;
31004;SDS011;17676;52.254;4.490;2023-07-02T09:31:46;7.47;;;2.15;;
31004;SDS011;17676;52.254;4.490;2023-07-02T09:34:12;7.93;;;2.08;;
31004;SDS011;17676;52.254;4.490;2023-07-02T09:36:38;7.95;;;1.90;;
31004;SDS011;17676;52.254;4.490;2023-07-02T09:39:18;6.72;;;1.98;;
31004;SDS011;17676;52.254;4.490;2023-07-02T09:41:47;8.80;;;2.35;;
31004;SDS011;17676;52.254;4.490;2023-07-02T09:44:14;6.18;;;2.33;;
31004;SDS011;17676;52.254;4.490;2023-07-02T09:46:41;5.53;;;2.25;;
31004;SDS011;17676;52.254;4.490;2023-07-02T09:49:18;10.93;;;2.35;;
31004;SDS011;17676;52.254;4.490;2023-07-02T09:51:45;7.82;;;2.40;;
31004;SDS011;17676;52.254;4.490;2023-07-02T09:54:11;8.18;;;2.13;;
31004;SDS011;17676;52.254;4.490;2023-07-02T09:56:37;6.70;;;2.58;;
31004;SDS011;17676;52.254;4.490;2023-07-02T09:59:04;7.22;;;2.10;;
31004;SDS011;17676;52.254;4.490;2023-07-02T10:01:30;8.68;;;2.35;;
31004;SDS011;17676;52.254;4.490;2023-07-02T10:03:55;8.20;;;1.98;;
31004;SDS011;17676;52.254;4.490;2023-07-02T10:06:21;7.57;;;2.25;;
31004;SDS011;17676;52.254;4.490;2023-07-02T10:08:53;6.30;;;2.17;;
31004;SDS011;17676;52.254;4.490;2023-07-02T10:11:19;5.07;;;2.08;;
31004;SDS011;17676;52.254;4.490;2023-07-02T10:13:45;8.65;;;2.78;;
31004;SDS011;17676;52.254;4.490;2023-07-02T10:16:10;7.32;;;2.65;;
31004;SDS011;17676;52.254;4.490;2023-07-02T10:18:36;3.83;;;1.80;;
31004;SDS011;17676;52.254;4.490;2023-07-02T10:21:12;6.15;;;2.08;;
31004;SDS011;17676;52.254;4.490;2023-07-02T10:23:39;6.22;;;2.58;;
31004;SDS011;17676;52.254;4.490;2023-07-02T10:26:13;7.07;;;2.60;;
31004;SDS011;17676;52.254;4.490;2023-07-02T10:28:39;8.13;;;2.38;;
31004;SDS011;17676;52.254;4.490;2023-07-02T10:31:16;6.18;;;2.08;;
31004;SDS011;17676;52.254;4.490;2023-07-02T10:33:43;11.32;;;2.45;;
31004;SDS011;17676;52.254;4.490;2023-07-02T10:36:16;5.45;;;2.25;;
31004;SDS011;17676;52.254;4.490;2023-07-02T10:38:42;7.93;;;2.85;;
31004;SDS011;17676;52.254;4.490;2023-07-02T10:41:08;10.85;;;2.53;;
31004;SDS011;17676;52.254;4.490;2023-07-02T10:43:33;8.75;;;2.67;;
31004;SDS011;17676;52.254;4.490;2023-07-02T10:45:59;7.55;;;2.92;;
31004;SDS011;17676;52.254;4.490;2023-07-02T10:48:25;10.65;;;2.72;;
31004;SDS011;17676;52.254;4.490;2023-07-02T10:50:50;8.40;;;2.50;;
31004;SDS011;17676;52.254;4.490;2023-07-02T10:53:16;10.18;;;2.58;;
31004;SDS011;17676;52.254;4.490;2023-07-02T10:55:43;8.77;;;2.75;;
31004;SDS011;17676;52.254;4.490;2023-07-02T10:58:09;5.57;;;2.22;;
31004;SDS011;17676;52.254;4.490;2023-07-02T11:03:21;7.65;;;2.40;;
31004;SDS011;17676;52.254;4.490;2023-07-02T11:05:51;10.05;;;2.67;;
31004;SDS011;17676;52.254;4.490;2023-07-02T11:08:17;9.60;;;2.78;;
31004;SDS011;17676;52.254;4.490;2023-07-02T11:10:43;7.88;;;2.47;;
31004;SDS011;17676;52.254;4.490;2023-07-02T11:13:15;6.00;;;2.65;;
31004;SDS011;17676;52.254;4.490;2023-07-02T11:15:42;5.55;;;2.08;;
31004;SDS011;17676;52.254;4.490;2023-07-02T11:18:15;8.48;;;2.88;;
31004;SDS011;17676;52.254;4.490;2023-07-02T11:20:41;7.90;;;2.95;;
31004;SDS011;17676;52.254;4.490;2023-07-02T11:23:21;8.60;;;2.45;;
31004;SDS011;17676;52.254;4.490;2023-07-02T11:25:54;8.57;;;2.63;;
31004;SDS011;17676;52.254;4.490;2023-07-02T11:28:20;6.38;;;2.95;;
31004;SDS011;17676;52.254;4.490;2023-07-02T11:30:46;7.70;;;2.30;;
31004;SDS011;17676;52.254;4.490;2023-07-02T11:33:11;9.63;;;2.60;;
31004;SDS011;17676;52.254;4.490;2023-07-02T11:35:37;9.88;;;2.70;;
31004;SDS011;17676;52.254;4.490;2023-07-02T11:38:02;7.97;;;2.47;;
31004;SDS011;17676;52.254;4.490;2023-07-02T11:40:27;6.95;;;2.45;;
31004;SDS011;17676;52.254;4.490;2023-07-02T11:42:53;7.00;;;2.70;;
31004;SDS011;17676;52.254;4.490;2023-07-02T11:45:18;8.38;;;2.75;;
31004;SDS011;17676;52.254;4.490;2023-07-02T11:47:44;10.00;;;2.70;;
31004;SDS011;17676;52.254;4.490;2023-07-02T11:50:10;9.38;;;3.15;;
31004;SDS011;17676;52.254;4.490;2023-07-02T11:52:35;13.25;;;3.53;;
31004;SDS011;17676;52.254;4.490;2023-07-02T11:55:01;8.02;;;3.03;;
31004;SDS011;17676;52.254;4.490;2023-07-02T11:57:26;13.18;;;2.78;;
31004;SDS011;17676;52.254;4.490;2023-07-02T11:59:51;9.25;;;2.97;;
31004;SDS011;17676;52.254;4.490;2023-07-02T12:02:17;9.85;;;2.90;;
31004;SDS011;17676;52.254;4.490;2023-07-02T12:04:44;7.00;;;2.30;;
31004;SDS011;17676;52.254;4.490;2023-07-02T12:07:09;9.18;;;2.53;;
31004;SDS011;17676;52.254;4.490;2023-07-02T12:09:35;9.43;;;2.83;;
31004;SDS011;17676;52.254;4.490;2023-07-02T12:12:01;10.20;;;2.83;;
31004;SDS011;17676;52.254;4.490;2023-07-02T12:14:26;12.77;;;3.03;;
31004;SDS011;17676;52.254;4.490;2023-07-02T12:16:52;10.35;;;3.70;;
31004;SDS011;17676;52.254;4.490;2023-07-02T12:19:17;11.95;;;3.25;;
31004;SDS011;17676;52.254;4.490;2023-07-02T12:21:43;6.70;;;2.65;;
31004;SDS011;17676;52.254;4.490;2023-07-02T12:24:08;9.10;;;2.88;;
31004;SDS011;17676;52.254;4.490;2023-07-02T12:26:38;9.13;;;2.88;;
31004;SDS011;17676;52.254;4.490;2023-07-02T12:29:05;10.70;;;3.35;;
31004;SDS011;17676;52.254;4.490;2023-07-02T12:31:30;7.97;;;2.85;;
31004;SDS011;17676;52.254;4.490;2023-07-02T12:33:56;7.30;;;2.50;;
31004;SDS011;17676;52.254;4.490;2023-07-02T12:36:21;11.98;;;2.80;;
31004;SDS011;17676;52.254;4.490;2023-07-02T12:38:47;8.73;;;3.00;;
31004;SDS011;17676;52.254;4.490;2023-07-02T12:41:12;8.52;;;2.80;;
31004;SDS011;17676;52.254;4.490;2023-07-02T12:43:38;8.57;;;2.47;;
31004;SDS011;17676;52.254;4.490;2023-07-02T12:46:03;11.98;;;2.15;;
31004;SDS011;17676;52.254;4.490;2023-07-02T12:48:29;8.88;;;2.97;;
31004;SDS011;17676;52.254;4.490;2023-07-02T12:50:58;8.75;;;2.55;;
31004;SDS011;17676;52.254;4.490;2023-07-02T12:53:24;8.23;;;2.55;;
31004;SDS011;17676;52.254;4.490;2023-07-02T12:55:50;11.88;;;2.58;;
31004;SDS011;17676;52.254;4.490;2023-07-02T12:58:16;11.02;;;3.17;;
31004;SDS011;17676;52.254;4.490;2023-07-02T13:00:41;10.13;;;2.80;;
31004;SDS011;17676;52.254;4.490;2023-07-02T13:03:11;10.77;;;2.92;;
31004;SDS011;17676;52.254;4.490;2023-07-02T13:05:38;12.07;;;2.97;;
31004;SDS011;17676;52.254;4.490;2023-07-02T13:08:04;9.10;;;2.42;;
31004;SDS011;17676;52.254;4.490;2023-07-02T13:10:30;7.88;;;2.42;;
31004;SDS011;17676;52.254;4.490;2023-07-02T13:12:56;9.02;;;2.63;;
31004;SDS011;17676;52.254;4.490;2023-07-02T13:15:22;12.48;;;3.05;;
31004;SDS011;17676;52.254;4.490;2023-07-02T13:17:47;8.65;;;2.72;;
31004;SDS011;17676;52.254;4.490;2023-07-02T13:20:13;6.22;;;2.35;;
31004;SDS011;17676;52.254;4.490;2023-07-02T13:22:38;8.48;;;3.05;;
31004;SDS011;17676;52.254;4.490;2023-07-02T13:25:06;9.18;;;2.80;;
31004;SDS011;17676;52.254;4.490;2023-07-02T13:27:32;9.40;;;2.67;;
31004;SDS011;17676;52.254;4.490;2023-07-02T13:29:58;8.65;;;2.63;;
31004;SDS011;17676;52.254;4.490;2023-07-02T13:32:23;10.45;;;3.17;;
31004;SDS011;17676;52.254;4.490;2023-07-02T13:34:49;11.88;;;2.42;;
31004;SDS011;17676;52.254;4.490;2023-07-02T13:37:14;10.70;;;3.25;;
31004;SDS011;17676;52.254;4.490;2023-07-02T13:39:43;7.47;;;2.55;;
31004;SDS011;17676;52.254;4.490;2023-07-02T13:42:13;8.38;;;2.70;;
31004;SDS011;17676;52.254;4.490;2023-07-02T13:44:38;9.43;;;2.40;;
31004;SDS011;17676;52.254;4.490;2023-07-02T13:47:04;10.88;;;2.70;;
31004;SDS011;17676;52.254;4.490;2023-07-02T13:49:30;9.57;;;2.72;;
31004;SDS011;17676;52.254;4.490;2023-07-02T13:51:56;8.23;;;2.83;;
31004;SDS011;17676;52.254;4.490;2023-07-02T13:54:21;6.50;;;2.50;;
31004;SDS011;17676;52.254;4.490;2023-07-02T13:56:47;11.85;;;3.40;;
31004;SDS011;17676;52.254;4.490;2023-07-02T13:59:12;8.60;;;2.80;;
31004;SDS011;17676;52.254;4.490;2023-07-02T14:01:38;8.45;;;2.92;;
31004;SDS011;17676;52.254;4.490;2023-07-02T14:04:04;9.18;;;2.88;;
31004;SDS011;17676;52.254;4.490;2023-07-02T14:06:30;11.23;;;2.70;;
31004;SDS011;17676;52.254;4.490;2023-07-02T14:08:56;11.40;;;2.85;;
31004;SDS011;17676;52.254;4.490;2023-07-02T14:11:22;8.40;;;2.97;;
31004;SDS011;17676;52.254;4.490;2023-07-02T14:13:49;9.35;;;2.80;;
31004;SDS011;17676;52.254;4.490;2023-07-02T14:16:14;9.30;;;2.30;;
31004;SDS011;17676;52.254;4.490;2023-07-02T14:18:40;9.98;;;2.65;;
31004;SDS011;17676;52.254;4.490;2023-07-02T14:21:05;8.82;;;2.80;;
31004;SDS011;17676;52.254;4.490;2023-07-02T14:23:31;9.50;;;1.88;;
31004;SDS011;17676;52.254;4.490;2023-07-02T14:25:57;5.75;;;1.85;;
31004;SDS011;17676;52.254;4.490;2023-07-02T14:28:22;7.93;;;1.75;;
31004;SDS011;17676;52.254;4.490;2023-07-02T14:30:47;7.00;;;2.00;;
31004;SDS011;17676;52.254;4.490;2023-07-02T14:33:20;2.60;;;1.30;;
31004;SDS011;17676;52.254;4.490;2023-07-02T14:35:46;4.45;;;1.42;;
31004;SDS011;17676;52.254;4.490;2023-07-02T14:38:11;5.28;;;1.80;;
31004;SDS011;17676;52.254;4.490;2023-07-02T14:40:36;4.97;;;1.50;;
31004;SDS011;17676;52.254;4.490;2023-07-02T14:43:02;5.70;;;1.98;;
31004;SDS011;17676;52.254;4.490;2023-07-02T14:45:29;4.28;;;1.52;;
31004;SDS011;17676;52.254;4.490;2023-07-02T14:47:54;5.15;;;1.83;;
31004;SDS011;17676;52.254;4.490;2023-07-02T14:50:24;6.28;;;2.03;;
31004;SDS011;17676;52.254;4.490;2023-07-02T14:52:50;11.98;;;2.63;;